sensor_id;sensor_type;location;lat;lon;timestamp;P1;durP1;ratioP1;P2;durP2;ratioP2
24644;SDS011;12780;45.502;9.146;2023-03-05T00:01:08;70.35;;;36.10;;
24644;SDS011;12780;45.502;9.146;2023-03-05T00:03:35;74.80;;;35.35;;
24644;SDS011;12780;45.502;9.146;2023-03-05T00:06:01;70.35;;;37.13;;
24644;SDS011;12780;45.502;9.146;2023-03-05T00:08:28;67.53;;;35.88;;
24644;SDS011;12780;45.502;9.146;2023-03-05T00:10:58;74.80;;;34.97;;
24644;SDS011;12780;45.502;9.146;2023-03-05T00:13:24;70.55;;;33.90;;
24644;SDS011;12780;45.502;9.146;2023-03-05T00:15:50;67.97;;;34.13;;
24644;SDS011;12780;45.502;9.146;2023-03-05T00:18:16;75.32;;;36.53;;
24644;SDS011;12780;45.502;9.146;2023-03-05T00:20:42;70.85;;;36.53;;
24644;SDS011;12780;45.502;9.146;2023-03-05T00:23:08;66.65;;;32.97;;
24644;SDS011;12780;45.502;9.146;2023-03-05T00:25:34;65.40;;;33.42;;
24644;SDS011;12780;45.502;9.146;2023-03-05T00:28:01;67.28;;;35.50;;
24644;SDS011;12780;45.502;9.146;2023-03-05T00:30:27;68.85;;;34.75;;
24644;SDS011;12780;45.502;9.146;2023-03-05T00:32:53;73.60;;;34.20;;
24644;SDS011;12780;45.502;9.146;2023-03-05T00:35:19;66.90;;;34.50;;
24644;SDS011;12780;45.502;9.146;2023-03-05T00:37:45;67.05;;;36.25;;
24644;SDS011;12780;45.502;9.146;2023-03-05T00:40:11;67.75;;;36.22;;
24644;SDS011;12780;45.502;9.146;2023-03-05T00:42:37;80.95;;;37.78;;
24644;SDS011;12780;45.502;9.146;2023-03-05T00:45:04;68.50;;;37.22;;
24644;SDS011;12780;45.502;9.146;2023-03-05T00:47:30;78.00;;;38.28;;
24644;SDS011;12780;45.502;9.146;2023-03-05T00:49:56;72.03;;;38.58;;
24644;SDS011;12780;45.502;9.146;2023-03-05T00:52:22;79.90;;;37.30;;
24644;SDS011;12780;45.502;9.146;2023-03-05T00:54:48;68.10;;;35.72;;
24644;SDS011;12780;45.502;9.146;2023-03-05T00:57:14;83.95;;;38.03;;
24644;SDS011;12780;45.502;9.146;2023-03-05T00:59:40;77.82;;;37.70;;
24644;SDS011;12780;45.502;9.146;2023-03-05T01:02:06;83.80;;;39.75;;
24644;SDS011;12780;45.502;9.146;2023-03-05T01:04:32;81.65;;;39.45;;
24644;SDS011;12780;45.502;9.146;2023-03-05T01:06:58;91.47;;;41.13;;
24644;SDS011;12780;45.502;9.146;2023-03-05T01:09:25;85.25;;;42.38;;
24644;SDS011;12780;45.502;9.146;2023-03-05T01:11:51;99.18;;;43.53;;
24644;SDS011;12780;45.502;9.146;2023-03-05T01:14:17;90.72;;;43.83;;
24644;SDS011;12780;45.502;9.146;2023-03-05T01:16:43;83.93;;;41.47;;
24644;SDS011;12780;45.502;9.146;2023-03-05T01:19:10;73.13;;;38.33;;
24644;SDS011;12780;45.502;9.146;2023-03-05T01:21:36;77.53;;;39.95;;
24644;SDS011;12780;45.502;9.146;2023-03-05T01:24:02;84.78;;;41.28;;
24644;SDS011;12780;45.502;9.146;2023-03-05T01:26:28;74.85;;;39.42;;
24644;SDS011;12780;45.502;9.146;2023-03-05T01:28:54;81.65;;;39.90;;
24644;SDS011;12780;45.502;9.146;2023-03-05T01:31:20;78.82;;;38.03;;
24644;SDS011;12780;45.502;9.146;2023-03-05T01:33:47;71.90;;;38.80;;
24644;SDS011;12780;45.502;9.146;2023-03-05T01:36:14;79.82;;;37.70;;
24644;SDS011;12780;45.502;9.146;2023-03-05T01:38:45;82.30;;;37.95;;
24644;SDS011;12780;45.502;9.146;2023-03-05T01:41:11;78.50;;;38.70;;
24644;SDS011;12780;45.502;9.146;2023-03-05T01:43:37;73.78;;;38.58;;
24644;SDS011;12780;45.502;9.146;2023-03-05T01:46:20;70.30;;;38.38;;
24644;SDS011;12780;45.502;9.146;2023-03-05T01:48:48;76.22;;;38.53;;
24644;SDS011;12780;45.502;9.146;2023-03-05T01:51:16;69.38;;;37.35;;
24644;SDS011;12780;45.502;9.146;2023-03-05T01:53:42;76.50;;;39.92;;
24644;SDS011;12780;45.502;9.146;2023-03-05T01:56:08;78.28;;;39.35;;
24644;SDS011;12780;45.502;9.146;2023-03-05T01:58:34;75.13;;;38.58;;
24644;SDS011;12780;45.502;9.146;2023-03-05T02:01:03;78.78;;;39.95;;
24644;SDS011;12780;45.502;9.146;2023-03-05T02:03:29;79.95;;;39.03;;
24644;SDS011;12780;45.502;9.146;2023-03-05T02:05:57;77.90;;;39.05;;
24644;SDS011;12780;45.502;9.146;2023-03-05T02:08:23;79.78;;;38.90;;
24644;SDS011;12780;45.502;9.146;2023-03-05T02:10:50;69.93;;;37.50;;
24644;SDS011;12780;45.502;9.146;2023-03-05T02:13:27;80.28;;;39.22;;
24644;SDS011;12780;45.502;9.146;2023-03-05T02:15:55;77.57;;;38.50;;
24644;SDS011;12780;45.502;9.146;2023-03-05T02:18:22;73.65;;;38.17;;
24644;SDS011;12780;45.502;9.146;2023-03-05T02:20:50;77.95;;;38.05;;
24644;SDS011;12780;45.502;9.146;2023-03-05T02:23:17;81.65;;;40.45;;
24644;SDS011;12780;45.502;9.146;2023-03-05T02:25:43;74.70;;;38.38;;
24644;SDS011;12780;45.502;9.146;2023-03-05T02:28:11;77.15;;;39.15;;
24644;SDS011;12780;45.502;9.146;2023-03-05T02:30:39;74.40;;;39.28;;
24644;SDS011;12780;45.502;9.146;2023-03-05T02:33:05;68.55;;;37.55;;
24644;SDS011;12780;45.502;9.146;2023-03-05T02:35:31;71.95;;;37.92;;
24644;SDS011;12780;45.502;9.146;2023-03-05T02:37:57;70.70;;;38.40;;
24644;SDS011;12780;45.502;9.146;2023-03-05T02:40:23;71.40;;;38.20;;
24644;SDS011;12780;45.502;9.146;2023-03-05T02:42:50;78.38;;;40.00;;
24644;SDS011;12780;45.502;9.146;2023-03-05T02:45:16;72.18;;;38.78;;
24644;SDS011;12780;45.502;9.146;2023-03-05T02:47:42;77.25;;;37.63;;
24644;SDS011;12780;45.502;9.146;2023-03-05T02:50:09;72.78;;;38.13;;
24644;SDS011;12780;45.502;9.146;2023-03-05T02:52:35;75.40;;;39.10;;
24644;SDS011;12780;45.502;9.146;2023-03-05T02:55:01;74.50;;;38.65;;
24644;SDS011;12780;45.502;9.146;2023-03-05T02:57:27;76.95;;;37.42;;
24644;SDS011;12780;45.502;9.146;2023-03-05T02:59:53;74.47;;;39.45;;
24644;SDS011;12780;45.502;9.146;2023-03-05T03:02:19;70.28;;;38.10;;
24644;SDS011;12780;45.502;9.146;2023-03-05T03:04:45;74.57;;;38.17;;
24644;SDS011;12780;45.502;9.146;2023-03-05T03:07:12;71.10;;;38.00;;
24644;SDS011;12780;45.502;9.146;2023-03-05T03:09:38;76.70;;;38.70;;
24644;SDS011;12780;45.502;9.146;2023-03-05T03:12:06;70.28;;;36.00;;
24644;SDS011;12780;45.502;9.146;2023-03-05T03:14:32;69.07;;;36.13;;
24644;SDS011;12780;45.502;9.146;2023-03-05T03:17:03;71.55;;;38.25;;
24644;SDS011;12780;45.502;9.146;2023-03-05T03:19:29;72.68;;;38.20;;
24644;SDS011;12780;45.502;9.146;2023-03-05T03:21:55;71.10;;;37.97;;
24644;SDS011;12780;45.502;9.146;2023-03-05T03:24:21;70.82;;;36.45;;
24644;SDS011;12780;45.502;9.146;2023-03-05T03:26:47;70.32;;;37.13;;
24644;SDS011;12780;45.502;9.146;2023-03-05T03:29:14;68.07;;;35.83;;
24644;SDS011;12780;45.502;9.146;2023-03-05T03:31:41;72.57;;;35.72;;
24644;SDS011;12780;45.502;9.146;2023-03-05T03:34:07;69.18;;;35.63;;
24644;SDS011;12780;45.502;9.146;2023-03-05T03:36:33;65.38;;;35.42;;
24644;SDS011;12780;45.502;9.146;2023-03-05T03:38:59;67.53;;;36.45;;
24644;SDS011;12780;45.502;9.146;2023-03-05T03:41:25;71.25;;;36.15;;
24644;SDS011;12780;45.502;9.146;2023-03-05T03:43:51;66.20;;;34.95;;
24644;SDS011;12780;45.502;9.146;2023-03-05T03:46:17;65.18;;;34.25;;
24644;SDS011;12780;45.502;9.146;2023-03-05T03:48:43;67.03;;;36.25;;
24644;SDS011;12780;45.502;9.146;2023-03-05T03:51:09;70.15;;;35.47;;
24644;SDS011;12780;45.502;9.146;2023-03-05T03:53:35;71.30;;;36.15;;
24644;SDS011;12780;45.502;9.146;2023-03-05T03:56:01;68.47;;;34.83;;
24644;SDS011;12780;45.502;9.146;2023-03-05T03:58:27;64.00;;;33.78;;
24644;SDS011;12780;45.502;9.146;2023-03-05T04:00:54;65.20;;;33.90;;
24644;SDS011;12780;45.502;9.146;2023-03-05T04:03:20;64.75;;;34.15;;
24644;SDS011;12780;45.502;9.146;2023-03-05T04:05:46;67.20;;;33.88;;
24644;SDS011;12780;45.502;9.146;2023-03-05T04:08:12;69.88;;;34.28;;
24644;SDS011;12780;45.502;9.146;2023-03-05T04:10:38;68.18;;;34.08;;
24644;SDS011;12780;45.502;9.146;2023-03-05T04:13:04;65.95;;;33.95;;
24644;SDS011;12780;45.502;9.146;2023-03-05T04:15:31;67.93;;;33.42;;
24644;SDS011;12780;45.502;9.146;2023-03-05T04:17:57;57.90;;;32.80;;
24644;SDS011;12780;45.502;9.146;2023-03-05T04:20:23;70.30;;;34.03;;
24644;SDS011;12780;45.502;9.146;2023-03-05T04:22:49;65.45;;;32.75;;
24644;SDS011;12780;45.502;9.146;2023-03-05T04:25:15;62.80;;;33.60;;
24644;SDS011;12780;45.502;9.146;2023-03-05T04:27:41;67.07;;;34.78;;
24644;SDS011;12780;45.502;9.146;2023-03-05T04:30:09;72.03;;;34.33;;
24644;SDS011;12780;45.502;9.146;2023-03-05T04:32:37;66.97;;;33.58;;
24644;SDS011;12780;45.502;9.146;2023-03-05T04:35:03;62.35;;;32.97;;
24644;SDS011;12780;45.502;9.146;2023-03-05T04:37:29;70.90;;;34.17;;
24644;SDS011;12780;45.502;9.146;2023-03-05T04:39:55;66.15;;;34.15;;
24644;SDS011;12780;45.502;9.146;2023-03-05T04:42:21;63.60;;;33.92;;
24644;SDS011;12780;45.502;9.146;2023-03-05T04:44:47;68.70;;;35.20;;
24644;SDS011;12780;45.502;9.146;2023-03-05T04:47:13;65.15;;;34.20;;
24644;SDS011;12780;45.502;9.146;2023-03-05T04:49:39;71.80;;;40.45;;
24644;SDS011;12780;45.502;9.146;2023-03-05T04:52:06;68.63;;;33.13;;
24644;SDS011;12780;45.502;9.146;2023-03-05T04:54:32;66.25;;;32.13;;
24644;SDS011;12780;45.502;9.146;2023-03-05T04:56:58;67.90;;;32.70;;
24644;SDS011;12780;45.502;9.146;2023-03-05T04:59:24;63.25;;;32.08;;
24644;SDS011;12780;45.502;9.146;2023-03-05T05:01:50;64.93;;;33.17;;
24644;SDS011;12780;45.502;9.146;2023-03-05T05:04:16;62.33;;;32.20;;
24644;SDS011;12780;45.502;9.146;2023-03-05T05:06:42;67.50;;;32.55;;
24644;SDS011;12780;45.502;9.146;2023-03-05T05:09:08;58.83;;;31.75;;
24644;SDS011;12780;45.502;9.146;2023-03-05T05:11:34;70.50;;;33.80;;
24644;SDS011;12780;45.502;9.146;2023-03-05T05:14:00;61.50;;;32.28;;
24644;SDS011;12780;45.502;9.146;2023-03-05T05:16:26;63.88;;;32.40;;
24644;SDS011;12780;45.502;9.146;2023-03-05T05:18:52;68.40;;;32.83;;
24644;SDS011;12780;45.502;9.146;2023-03-05T05:21:18;64.30;;;33.05;;
24644;SDS011;12780;45.502;9.146;2023-03-05T05:23:44;66.78;;;32.08;;
24644;SDS011;12780;45.502;9.146;2023-03-05T05:26:10;66.78;;;32.50;;
24644;SDS011;12780;45.502;9.146;2023-03-05T05:28:40;67.45;;;32.47;;
24644;SDS011;12780;45.502;9.146;2023-03-05T05:31:11;65.78;;;32.00;;
24644;SDS011;12780;45.502;9.146;2023-03-05T05:33:37;66.60;;;32.78;;
24644;SDS011;12780;45.502;9.146;2023-03-05T05:36:04;64.65;;;32.85;;
24644;SDS011;12780;45.502;9.146;2023-03-05T05:38:30;59.72;;;32.10;;
24644;SDS011;12780;45.502;9.146;2023-03-05T05:41:10;63.40;;;32.45;;
24644;SDS011;12780;45.502;9.146;2023-03-05T05:43:36;62.95;;;31.05;;
24644;SDS011;12780;45.502;9.146;2023-03-05T05:46:03;62.17;;;32.05;;
24644;SDS011;12780;45.502;9.146;2023-03-05T05:48:30;62.85;;;31.75;;
24644;SDS011;12780;45.502;9.146;2023-03-05T05:50:57;64.25;;;32.03;;
24644;SDS011;12780;45.502;9.146;2023-03-05T05:53:23;68.20;;;32.60;;
24644;SDS011;12780;45.502;9.146;2023-03-05T05:55:49;59.67;;;31.80;;
24644;SDS011;12780;45.502;9.146;2023-03-05T05:58:15;61.55;;;31.58;;
24644;SDS011;12780;45.502;9.146;2023-03-05T06:00:42;58.67;;;30.60;;
24644;SDS011;12780;45.502;9.146;2023-03-05T06:03:08;62.67;;;32.38;;
24644;SDS011;12780;45.502;9.146;2023-03-05T06:05:34;60.72;;;30.90;;
24644;SDS011;12780;45.502;9.146;2023-03-05T06:08:00;66.15;;;32.90;;
24644;SDS011;12780;45.502;9.146;2023-03-05T06:10:26;58.60;;;31.42;;
24644;SDS011;12780;45.502;9.146;2023-03-05T06:12:52;58.80;;;29.58;;
24644;SDS011;12780;45.502;9.146;2023-03-05T06:15:18;62.90;;;31.48;;
24644;SDS011;12780;45.502;9.146;2023-03-05T06:17:44;63.88;;;30.73;;
24644;SDS011;12780;45.502;9.146;2023-03-05T06:20:11;62.80;;;30.83;;
24644;SDS011;12780;45.502;9.146;2023-03-05T06:22:38;62.70;;;31.17;;
24644;SDS011;12780;45.502;9.146;2023-03-05T06:25:04;62.40;;;31.38;;
24644;SDS011;12780;45.502;9.146;2023-03-05T06:27:31;68.38;;;32.17;;
24644;SDS011;12780;45.502;9.146;2023-03-05T06:29:57;65.03;;;32.17;;
24644;SDS011;12780;45.502;9.146;2023-03-05T06:32:23;63.42;;;30.23;;
24644;SDS011;12780;45.502;9.146;2023-03-05T06:34:49;63.75;;;32.15;;
24644;SDS011;12780;45.502;9.146;2023-03-05T06:37:15;65.72;;;33.10;;
24644;SDS011;12780;45.502;9.146;2023-03-05T06:39:41;66.50;;;32.22;;
24644;SDS011;12780;45.502;9.146;2023-03-05T06:42:07;69.82;;;31.58;;
24644;SDS011;12780;45.502;9.146;2023-03-05T06:44:34;61.75;;;31.20;;
24644;SDS011;12780;45.502;9.146;2023-03-05T06:47:00;58.03;;;29.45;;
24644;SDS011;12780;45.502;9.146;2023-03-05T06:49:26;64.07;;;31.52;;
24644;SDS011;12780;45.502;9.146;2023-03-05T06:51:52;60.65;;;31.60;;
24644;SDS011;12780;45.502;9.146;2023-03-05T06:54:18;57.97;;;31.92;;
24644;SDS011;12780;45.502;9.146;2023-03-05T06:56:44;67.47;;;31.63;;
24644;SDS011;12780;45.502;9.146;2023-03-05T06:59:11;68.90;;;30.95;;
24644;SDS011;12780;45.502;9.146;2023-03-05T07:01:38;60.65;;;30.63;;
24644;SDS011;12780;45.502;9.146;2023-03-05T07:04:04;64.00;;;31.23;;
24644;SDS011;12780;45.502;9.146;2023-03-05T07:06:31;63.38;;;32.72;;
24644;SDS011;12780;45.502;9.146;2023-03-05T07:08:58;62.35;;;31.65;;
24644;SDS011;12780;45.502;9.146;2023-03-05T07:11:27;64.22;;;31.73;;
24644;SDS011;12780;45.502;9.146;2023-03-05T07:13:54;61.72;;;32.40;;
24644;SDS011;12780;45.502;9.146;2023-03-05T07:16:21;64.75;;;32.33;;
24644;SDS011;12780;45.502;9.146;2023-03-05T07:18:48;63.17;;;32.67;;
24644;SDS011;12780;45.502;9.146;2023-03-05T07:21:15;63.83;;;32.30;;
24644;SDS011;12780;45.502;9.146;2023-03-05T07:23:41;64.45;;;33.35;;
24644;SDS011;12780;45.502;9.146;2023-03-05T07:26:07;77.22;;;34.90;;
24644;SDS011;12780;45.502;9.146;2023-03-05T07:28:33;68.35;;;34.17;;
24644;SDS011;12780;45.502;9.146;2023-03-05T07:31:01;65.78;;;34.28;;
24644;SDS011;12780;45.502;9.146;2023-03-05T07:33:27;62.60;;;31.08;;
24644;SDS011;12780;45.502;9.146;2023-03-05T07:35:53;64.85;;;31.85;;
24644;SDS011;12780;45.502;9.146;2023-03-05T07:38:19;69.65;;;33.35;;
24644;SDS011;12780;45.502;9.146;2023-03-05T07:40:45;63.70;;;33.08;;
24644;SDS011;12780;45.502;9.146;2023-03-05T07:43:12;67.53;;;31.80;;
24644;SDS011;12780;45.502;9.146;2023-03-05T07:45:39;64.40;;;33.03;;
24644;SDS011;12780;45.502;9.146;2023-03-05T07:48:05;67.75;;;33.70;;
24644;SDS011;12780;45.502;9.146;2023-03-05T07:50:31;62.42;;;32.25;;
24644;SDS011;12780;45.502;9.146;2023-03-05T07:52:58;68.65;;;33.55;;
24644;SDS011;12780;45.502;9.146;2023-03-05T07:55:25;67.78;;;32.92;;
24644;SDS011;12780;45.502;9.146;2023-03-05T07:57:51;68.78;;;34.60;;
24644;SDS011;12780;45.502;9.146;2023-03-05T08:00:17;68.65;;;34.13;;
24644;SDS011;12780;45.502;9.146;2023-03-05T08:02:43;65.85;;;35.53;;
24644;SDS011;12780;45.502;9.146;2023-03-05T08:05:10;70.97;;;35.58;;
24644;SDS011;12780;45.502;9.146;2023-03-05T08:07:36;66.25;;;35.83;;
24644;SDS011;12780;45.502;9.146;2023-03-05T08:10:02;72.40;;;37.40;;
24644;SDS011;12780;45.502;9.146;2023-03-05T08:12:28;67.20;;;36.80;;
24644;SDS011;12780;45.502;9.146;2023-03-05T08:14:54;70.05;;;35.58;;
24644;SDS011;12780;45.502;9.146;2023-03-05T08:17:20;78.55;;;38.33;;
24644;SDS011;12780;45.502;9.146;2023-03-05T08:19:46;72.90;;;38.88;;
24644;SDS011;12780;45.502;9.146;2023-03-05T08:22:12;74.55;;;37.65;;
24644;SDS011;12780;45.502;9.146;2023-03-05T08:24:40;71.90;;;37.10;;
24644;SDS011;12780;45.502;9.146;2023-03-05T08:27:06;78.53;;;38.25;;
24644;SDS011;12780;45.502;9.146;2023-03-05T08:29:32;72.32;;;37.55;;
24644;SDS011;12780;45.502;9.146;2023-03-05T08:31:58;69.97;;;37.88;;
24644;SDS011;12780;45.502;9.146;2023-03-05T08:34:24;67.82;;;37.03;;
24644;SDS011;12780;45.502;9.146;2023-03-05T08:36:50;72.13;;;38.40;;
24644;SDS011;12780;45.502;9.146;2023-03-05T08:39:17;75.40;;;39.80;;
24644;SDS011;12780;45.502;9.146;2023-03-05T08:41:43;75.40;;;40.20;;
24644;SDS011;12780;45.502;9.146;2023-03-05T08:44:09;75.68;;;38.45;;
24644;SDS011;12780;45.502;9.146;2023-03-05T08:46:37;74.32;;;39.88;;
24644;SDS011;12780;45.502;9.146;2023-03-05T08:49:03;77.57;;;39.42;;
24644;SDS011;12780;45.502;9.146;2023-03-05T08:51:31;75.07;;;40.20;;
24644;SDS011;12780;45.502;9.146;2023-03-05T08:53:57;75.82;;;40.38;;
24644;SDS011;12780;45.502;9.146;2023-03-05T08:56:24;72.32;;;38.65;;
24644;SDS011;12780;45.502;9.146;2023-03-05T08:58:52;78.10;;;40.58;;
24644;SDS011;12780;45.502;9.146;2023-03-05T09:01:18;79.78;;;40.17;;
24644;SDS011;12780;45.502;9.146;2023-03-05T09:03:44;72.65;;;39.05;;
24644;SDS011;12780;45.502;9.146;2023-03-05T09:06:11;76.13;;;40.13;;
24644;SDS011;12780;45.502;9.146;2023-03-05T09:08:37;71.80;;;38.72;;
24644;SDS011;12780;45.502;9.146;2023-03-05T09:11:04;74.38;;;39.42;;
24644;SDS011;12780;45.502;9.146;2023-03-05T09:13:30;69.60;;;38.88;;
24644;SDS011;12780;45.502;9.146;2023-03-05T09:16:00;78.05;;;40.35;;
24644;SDS011;12780;45.502;9.146;2023-03-05T09:18:26;81.97;;;39.22;;
24644;SDS011;12780;45.502;9.146;2023-03-05T09:20:52;68.78;;;37.65;;
24644;SDS011;12780;45.502;9.146;2023-03-05T09:23:18;79.70;;;40.10;;
24644;SDS011;12780;45.502;9.146;2023-03-05T09:25:44;74.63;;;38.25;;
24644;SDS011;12780;45.502;9.146;2023-03-05T09:28:10;76.13;;;39.03;;
24644;SDS011;12780;45.502;9.146;2023-03-05T09:30:37;72.53;;;38.63;;
24644;SDS011;12780;45.502;9.146;2023-03-05T09:33:03;68.13;;;36.15;;
24644;SDS011;12780;45.502;9.146;2023-03-05T09:35:29;67.18;;;36.97;;
24644;SDS011;12780;45.502;9.146;2023-03-05T09:37:55;73.93;;;39.10;;
24644;SDS011;12780;45.502;9.146;2023-03-05T09:40:21;70.45;;;38.28;;
24644;SDS011;12780;45.502;9.146;2023-03-05T09:42:53;73.18;;;38.63;;
24644;SDS011;12780;45.502;9.146;2023-03-05T09:55:46;74.53;;;37.60;;
24644;SDS011;12780;45.502;9.146;2023-03-05T09:58:16;69.45;;;37.17;;
24644;SDS011;12780;45.502;9.146;2023-03-05T10:03:20;74.88;;;37.35;;
24644;SDS011;12780;45.502;9.146;2023-03-05T10:05:57;70.05;;;37.53;;
24644;SDS011;12780;45.502;9.146;2023-03-05T10:08:26;67.85;;;36.78;;
24644;SDS011;12780;45.502;9.146;2023-03-05T10:10:55;66.57;;;35.78;;
24644;SDS011;12780;45.502;9.146;2023-03-05T10:13:32;80.00;;;36.63;;
24644;SDS011;12780;45.502;9.146;2023-03-05T10:21:17;72.57;;;37.63;;
24644;SDS011;12780;45.502;9.146;2023-03-05T10:26:43;66.20;;;36.92;;
24644;SDS011;12780;45.502;9.146;2023-03-05T10:32:08;73.93;;;37.17;;
24644;SDS011;12780;45.502;9.146;2023-03-05T10:44:59;59.05;;;30.85;;
24644;SDS011;12780;45.502;9.146;2023-03-05T10:47:29;60.65;;;32.40;;
24644;SDS011;12780;45.502;9.146;2023-03-05T10:49:57;62.20;;;32.92;;
24644;SDS011;12780;45.502;9.146;2023-03-05T10:52:36;61.08;;;32.03;;
24644;SDS011;12780;45.502;9.146;2023-03-05T10:55:18;64.90;;;32.97;;
24644;SDS011;12780;45.502;9.146;2023-03-05T10:57:44;58.88;;;31.00;;
24644;SDS011;12780;45.502;9.146;2023-03-05T11:02:55;62.20;;;30.13;;
24644;SDS011;12780;45.502;9.146;2023-03-05T11:10:44;54.55;;;29.70;;
24644;SDS011;12780;45.502;9.146;2023-03-05T11:13:22;56.60;;;30.70;;
24644;SDS011;12780;45.502;9.146;2023-03-05T11:15:57;58.45;;;29.67;;
24644;SDS011;12780;45.502;9.146;2023-03-05T11:18:23;58.05;;;29.50;;
24644;SDS011;12780;45.502;9.146;2023-03-05T11:20:49;54.78;;;28.98;;
24644;SDS011;12780;45.502;9.146;2023-03-05T11:23:19;62.22;;;29.05;;
24644;SDS011;12780;45.502;9.146;2023-03-05T11:28:24;56.15;;;27.63;;
24644;SDS011;12780;45.502;9.146;2023-03-05T11:30:54;56.35;;;26.73;;
24644;SDS011;12780;45.502;9.146;2023-03-05T11:33:21;51.10;;;26.25;;
24644;SDS011;12780;45.502;9.146;2023-03-05T11:35:48;51.03;;;24.50;;
24644;SDS011;12780;45.502;9.146;2023-03-05T11:38:32;48.67;;;24.92;;
24644;SDS011;12780;45.502;9.146;2023-03-05T11:40:58;50.58;;;26.17;;
24644;SDS011;12780;45.502;9.146;2023-03-05T11:43:25;49.08;;;25.80;;
24644;SDS011;12780;45.502;9.146;2023-03-05T11:45:52;50.47;;;25.15;;
24644;SDS011;12780;45.502;9.146;2023-03-05T11:50:46;55.10;;;24.50;;
24644;SDS011;12780;45.502;9.146;2023-03-05T11:53:17;54.38;;;26.58;;
24644;SDS011;12780;45.502;9.146;2023-03-05T11:58:26;49.88;;;25.38;;
24644;SDS011;12780;45.502;9.146;2023-03-05T12:00:53;44.63;;;24.55;;
24644;SDS011;12780;45.502;9.146;2023-03-05T12:03:20;42.95;;;23.65;;
24644;SDS011;12780;45.502;9.146;2023-03-05T12:05:48;44.78;;;22.73;;
24644;SDS011;12780;45.502;9.146;2023-03-05T12:08:17;45.22;;;24.05;;
24644;SDS011;12780;45.502;9.146;2023-03-05T12:10:45;47.17;;;24.23;;
24644;SDS011;12780;45.502;9.146;2023-03-05T12:13:14;43.05;;;23.25;;
24644;SDS011;12780;45.502;9.146;2023-03-05T12:15:49;47.73;;;22.17;;
24644;SDS011;12780;45.502;9.146;2023-03-05T12:18:31;43.53;;;22.40;;
24644;SDS011;12780;45.502;9.146;2023-03-05T12:23:54;41.28;;;21.08;;
24644;SDS011;12780;45.502;9.146;2023-03-05T12:29:16;45.85;;;21.85;;
24644;SDS011;12780;45.502;9.146;2023-03-05T12:31:50;35.85;;;20.98;;
24644;SDS011;12780;45.502;9.146;2023-03-05T12:34:40;40.75;;;22.45;;
24644;SDS011;12780;45.502;9.146;2023-03-05T12:37:10;40.10;;;20.67;;
24644;SDS011;12780;45.502;9.146;2023-03-05T12:48:32;43.63;;;21.30;;
24644;SDS011;12780;45.502;9.146;2023-03-05T12:53:12;43.78;;;23.08;;
24644;SDS011;12780;45.502;9.146;2023-03-05T12:55:56;42.78;;;22.33;;
24644;SDS011;12780;45.502;9.146;2023-03-05T13:00:58;40.25;;;21.08;;
24644;SDS011;12780;45.502;9.146;2023-03-05T13:03:31;46.85;;;21.15;;
24644;SDS011;12780;45.502;9.146;2023-03-05T13:05:58;36.40;;;19.77;;
24644;SDS011;12780;45.502;9.146;2023-03-05T13:08:26;42.05;;;20.40;;
24644;SDS011;12780;45.502;9.146;2023-03-05T13:13:21;41.58;;;21.27;;
24644;SDS011;12780;45.502;9.146;2023-03-05T13:15:49;38.65;;;21.25;;
24644;SDS011;12780;45.502;9.146;2023-03-05T13:18:19;42.08;;;21.40;;
24644;SDS011;12780;45.502;9.146;2023-03-05T13:20:46;37.97;;;20.42;;
24644;SDS011;12780;45.502;9.146;2023-03-05T13:23:25;36.30;;;20.00;;
24644;SDS011;12780;45.502;9.146;2023-03-05T13:28:24;39.63;;;20.63;;
24644;SDS011;12780;45.502;9.146;2023-03-05T13:30:51;37.53;;;19.38;;
24644;SDS011;12780;45.502;9.146;2023-03-05T13:33:19;39.05;;;20.40;;
24644;SDS011;12780;45.502;9.146;2023-03-05T13:35:46;39.42;;;20.23;;
24644;SDS011;12780;45.502;9.146;2023-03-05T13:38:16;33.45;;;18.63;;
24644;SDS011;12780;45.502;9.146;2023-03-05T13:40:46;36.00;;;17.05;;
24644;SDS011;12780;45.502;9.146;2023-03-05T13:43:25;32.83;;;16.88;;
24644;SDS011;12780;45.502;9.146;2023-03-05T13:45:51;35.25;;;18.42;;
24644;SDS011;12780;45.502;9.146;2023-03-05T13:48:18;35.90;;;16.95;;
24644;SDS011;12780;45.502;9.146;2023-03-05T13:50:44;40.10;;;18.23;;
24644;SDS011;12780;45.502;9.146;2023-03-05T13:53:15;36.58;;;18.90;;
24644;SDS011;12780;45.502;9.146;2023-03-05T13:55:43;34.05;;;18.85;;
24644;SDS011;12780;45.502;9.146;2023-03-05T14:01:28;39.95;;;18.40;;
24644;SDS011;12780;45.502;9.146;2023-03-05T14:03:50;35.45;;;19.05;;
24644;SDS011;12780;45.502;9.146;2023-03-05T14:06:18;37.20;;;19.25;;
24644;SDS011;12780;45.502;9.146;2023-03-05T14:08:49;34.85;;;18.70;;
24644;SDS011;12780;45.502;9.146;2023-03-05T14:11:16;35.53;;;18.25;;
24644;SDS011;12780;45.502;9.146;2023-03-05T14:13:42;33.67;;;18.42;;
24644;SDS011;12780;45.502;9.146;2023-03-05T14:16:10;36.13;;;18.35;;
24644;SDS011;12780;45.502;9.146;2023-03-05T14:18:37;33.88;;;17.70;;
24644;SDS011;12780;45.502;9.146;2023-03-05T14:21:07;39.33;;;18.27;;
24644;SDS011;12780;45.502;9.146;2023-03-05T14:28:51;31.17;;;17.05;;
24644;SDS011;12780;45.502;9.146;2023-03-05T14:31:17;36.38;;;17.58;;
24644;SDS011;12780;45.502;9.146;2023-03-05T14:33:44;32.60;;;17.15;;
24644;SDS011;12780;45.502;9.146;2023-03-05T14:36:11;32.50;;;16.85;;
24644;SDS011;12780;45.502;9.146;2023-03-05T14:38:38;37.20;;;18.25;;
24644;SDS011;12780;45.502;9.146;2023-03-05T14:41:20;32.15;;;16.27;;
24644;SDS011;12780;45.502;9.146;2023-03-05T14:43:47;34.53;;;17.20;;
24644;SDS011;12780;45.502;9.146;2023-03-05T14:46:13;34.35;;;17.08;;
24644;SDS011;12780;45.502;9.146;2023-03-05T14:48:39;32.90;;;17.02;;
24644;SDS011;12780;45.502;9.146;2023-03-05T14:51:05;35.20;;;18.40;;
24644;SDS011;12780;45.502;9.146;2023-03-05T14:53:39;34.97;;;17.73;;
24644;SDS011;12780;45.502;9.146;2023-03-05T14:56:14;37.05;;;18.55;;
24644;SDS011;12780;45.502;9.146;2023-03-05T14:58:41;38.83;;;18.92;;
24644;SDS011;12780;45.502;9.146;2023-03-05T15:01:08;31.42;;;18.38;;
24644;SDS011;12780;45.502;9.146;2023-03-05T15:03:35;37.65;;;17.30;;
24644;SDS011;12780;45.502;9.146;2023-03-05T15:06:02;38.22;;;18.02;;
24644;SDS011;12780;45.502;9.146;2023-03-05T15:08:29;34.45;;;18.35;;
24644;SDS011;12780;45.502;9.146;2023-03-05T15:10:56;33.90;;;18.42;;
24644;SDS011;12780;45.502;9.146;2023-03-05T15:13:22;38.60;;;19.67;;
24644;SDS011;12780;45.502;9.146;2023-03-05T15:15:48;39.13;;;19.75;;
24644;SDS011;12780;45.502;9.146;2023-03-05T15:18:16;42.08;;;19.13;;
24644;SDS011;12780;45.502;9.146;2023-03-05T15:20:43;37.47;;;19.52;;
24644;SDS011;12780;45.502;9.146;2023-03-05T15:23:09;38.10;;;18.85;;
24644;SDS011;12780;45.502;9.146;2023-03-05T15:25:37;36.92;;;17.80;;
24644;SDS011;12780;45.502;9.146;2023-03-05T15:28:03;32.65;;;18.05;;
24644;SDS011;12780;45.502;9.146;2023-03-05T15:30:30;32.55;;;17.35;;
24644;SDS011;12780;45.502;9.146;2023-03-05T15:32:57;34.67;;;17.23;;
24644;SDS011;12780;45.502;9.146;2023-03-05T15:35:25;33.95;;;16.08;;
24644;SDS011;12780;45.502;9.146;2023-03-05T15:37:51;34.35;;;17.05;;
24644;SDS011;12780;45.502;9.146;2023-03-05T15:40:17;32.97;;;16.58;;
24644;SDS011;12780;45.502;9.146;2023-03-05T15:42:44;30.95;;;16.23;;
24644;SDS011;12780;45.502;9.146;2023-03-05T15:45:10;31.30;;;15.38;;